createdAt,value
2018-04-22T00:00:25.797Z,56.46
2018-04-22T00:02:51.770Z,56.67
2018-04-22T00:05:17.728Z,55.78
2018-04-22T00:07:43.676Z,56.06
2018-04-22T00:10:09.615Z,55.34
2018-04-22T00:12:35.547Z,55.68
2018-04-22T00:15:01.514Z,55.61
2018-04-22T00:17:27.485Z,55.44
2018-04-22T00:19:53.424Z,55.65
2018-04-22T00:22:19.384Z,55.27
2018-04-22T00:24:45.341Z,55.49
2018-04-22T00:27:11.291Z,55.44
2018-04-22T00:29:37.278Z,55.55
2018-04-22T00:32:03.224Z,56.14
2018-04-22T00:34:29.172Z,57.17
2018-04-22T00:36:55.158Z,57.19
2018-04-22T00:39:21.130Z,56.54
2018-04-22T00:41:47.063Z,56.17
2018-04-22T00:44:13.034Z,58.15
2018-04-22T00:46:38.965Z,57.45
2018-04-22T00:49:04.921Z,56.67
2018-04-22T00:51:30.875Z,56.65
2018-04-22T00:53:56.813Z,56.28
2018-04-22T00:56:22.750Z,58.31
2018-04-22T00:58:48.707Z,58.85
2018-04-22T01:01:14.651Z,57.34
2018-04-22T01:03:40.595Z,57.13
2018-04-22T01:06:06.537Z,56.73
2018-04-22T01:08:32.485Z,57.35
2018-04-22T01:10:58.476Z,56.40
2018-04-22T01:13:24.436Z,56.22
2018-04-22T01:15:50.397Z,56.05
2018-04-22T01:18:16.350Z,56.46
2018-04-22T01:20:42.310Z,59.02
2018-04-22T01:23:08.256Z,56.24
2018-04-22T01:25:34.247Z,56.02
2018-04-22T01:28:00.203Z,55.76
2018-04-22T01:30:26.141Z,56.34
2018-04-22T01:32:52.068Z,54.77
2018-04-22T01:35:18.042Z,55.44
2018-04-22T01:37:43.996Z,55.67
2018-04-22T01:40:09.958Z,56.04
2018-04-22T01:42:35.917Z,60.54
2018-04-22T01:45:01.909Z,60.77
2018-04-22T01:47:27.843Z,61.92
2018-04-22T01:49:53.777Z,62.51
2018-04-22T01:52:19.702Z,59.30
2018-04-22T01:54:45.658Z,62.70
2018-04-22T01:57:11.573Z,62.98
2018-04-22T01:59:37.512Z,64.04
2018-04-22T02:02:03.440Z,64.31
2018-04-22T02:04:29.397Z,61.24
2018-04-22T02:06:55.327Z,62.99
2018-04-22T02:09:21.258Z,63.69
2018-04-22T02:11:47.197Z,62.53
2018-04-22T02:14:13.135Z,63.13
2018-04-22T02:16:39.107Z,63.37
2018-04-22T02:19:05.068Z,63.93
2018-04-22T02:21:31.022Z,64.15
2018-04-22T02:23:56.974Z,63.94
2018-04-22T02:26:22.977Z,63.24
2018-04-22T02:28:48.940Z,64.67
2018-04-22T02:31:14.874Z,64.55
2018-04-22T02:33:40.819Z,59.16
2018-04-22T02:36:06.754Z,57.81
2018-04-22T02:38:32.706Z,57.79
2018-04-22T02:40:58.659Z,58.70
2018-04-22T02:43:24.602Z,58.28
2018-04-22T02:45:50.551Z,62.40
2018-04-22T02:48:16.493Z,63.43
2018-04-22T02:50:42.445Z,60.80
2018-04-22T02:53:08.403Z,61.19
2018-04-22T02:55:34.338Z,62.96
2018-04-22T02:58:00.287Z,63.73
2018-04-22T03:00:26.233Z,63.76
2018-04-22T03:02:52.193Z,60.68
2018-04-22T03:05:18.122Z,61.83
2018-04-22T03:07:44.062Z,59.97
2018-04-22T03:10:09.999Z,58.82
2018-04-22T03:12:36.014Z,60.48
2018-04-22T03:15:01.973Z,62.46
2018-04-22T03:17:27.905Z,63.86
2018-04-22T03:19:53.855Z,65.24
2018-04-22T03:22:19.795Z,65.24
2018-04-22T03:24:45.751Z,64.79
2018-04-22T03:27:11.696Z,63.82
2018-04-22T03:29:37.634Z,62.32
2018-04-22T03:32:03.562Z,62.13
2018-04-22T03:34:29.517Z,63.18
2018-04-22T03:36:55.467Z,63.21
2018-04-22T03:39:21.429Z,63.94
2018-04-22T03:41:47.367Z,62.12
2018-04-22T03:44:13.336Z,62.60
2018-04-22T03:46:39.298Z,63.15
2018-04-22T03:49:05.273Z,62.04
2018-04-22T03:51:31.208Z,65.22
2018-04-22T03:53:57.148Z,65.26
2018-04-22T03:56:23.112Z,62.84
2018-04-22T03:58:49.057Z,60.95
2018-04-22T04:01:14.983Z,62.75
2018-04-22T04:03:41.271Z,62.02
2018-04-22T04:06:07.229Z,60.75
2018-04-22T04:08:33.176Z,63.19
2018-04-22T04:10:59.127Z,62.57
2018-04-22T04:13:25.069Z,64.47
2018-04-22T04:15:51.065Z,61.45
2018-04-22T04:18:17.020Z,62.76
2018-04-22T04:20:42.983Z,64.10
2018-04-22T04:23:08.939Z,63.84
2018-04-22T04:25:34.880Z,61.90
2018-04-22T04:28:00.827Z,63.68
2018-04-22T04:30:26.768Z,61.83
2018-04-22T04:32:52.696Z,64.35
2018-04-22T04:35:18.636Z,65.03
2018-04-22T04:37:44.579Z,64.24
2018-04-22T04:40:10.511Z,61.29
2018-04-22T04:42:36.487Z,61.47
2018-04-22T04:45:02.453Z,63.08
2018-04-22T04:47:28.402Z,62.16
2018-04-22T04:49:54.352Z,63.11
2018-04-22T04:52:20.320Z,63.27
2018-04-22T04:54:46.271Z,62.93
2018-04-22T04:57:12.211Z,60.76
2018-04-22T04:59:38.161Z,63.05
2018-04-22T05:02:04.121Z,61.91
2018-04-22T05:04:30.065Z,60.12
2018-04-22T05:06:56.007Z,61.91
2018-04-22T05:09:21.941Z,62.49
2018-04-22T05:11:47.927Z,63.37
2018-04-22T05:14:13.872Z,62.97
2018-04-22T05:16:39.835Z,59.52
2018-04-22T05:19:05.769Z,59.52
2018-04-22T05:21:31.771Z,61.11
2018-04-22T05:23:57.709Z,61.90
2018-04-22T05:26:23.721Z,60.81
2018-04-22T05:28:49.694Z,60.43
2018-04-22T05:31:15.647Z,57.85
2018-04-22T05:33:41.724Z,57.69
2018-04-22T05:36:07.679Z,55.75
2018-04-22T05:38:33.705Z,56.51
2018-04-22T05:40:59.781Z,57.63
2018-04-22T05:43:25.728Z,56.43
2018-04-22T05:45:51.664Z,56.30
2018-04-22T05:48:17.637Z,54.64
2018-04-22T05:50:43.589Z,55.12
2018-04-22T05:53:09.550Z,54.47
2018-04-22T05:55:35.528Z,53.63
2018-04-22T05:58:01.477Z,53.90
2018-04-22T06:00:27.424Z,51.39
2018-04-22T06:02:53.380Z,50.34
2018-04-22T06:05:19.316Z,50.74
2018-04-22T06:07:45.311Z,50.77
2018-04-22T06:10:11.242Z,50.34
2018-04-22T06:12:37.270Z,49.47
2018-04-22T06:15:03.226Z,49.05
2018-04-22T06:17:29.162Z,48.72
2018-04-22T06:19:55.135Z,48.09
2018-04-22T06:22:21.098Z,48.59
2018-04-22T06:24:47.028Z,49.99
2018-04-22T06:27:13.065Z,49.40
2018-04-22T06:29:39.116Z,49.86
2018-04-22T06:32:05.145Z,48.54
2018-04-22T06:34:31.106Z,48.18
2018-04-22T06:36:57.062Z,48.21
2018-04-22T06:39:23.002Z,48.34
2018-04-22T06:41:48.965Z,48.11
2018-04-22T06:44:15.060Z,47.81
2018-04-22T06:46:40.997Z,47.75
2018-04-22T06:49:06.962Z,48.18
2018-04-22T06:51:32.924Z,46.75
2018-04-22T06:53:58.893Z,46.88
2018-04-22T06:56:24.893Z,46.11
2018-04-22T06:58:50.849Z,46.16
2018-04-22T07:01:16.790Z,44.58
2018-04-22T07:03:42.742Z,45.03
2018-04-22T07:06:08.716Z,44.69
2018-04-22T07:08:34.907Z,44.15
2018-04-22T07:11:00.853Z,43.89
2018-04-22T07:13:26.788Z,43.08
2018-04-22T07:15:52.708Z,41.69
2018-04-22T07:18:18.656Z,43.04
2018-04-22T07:20:44.641Z,42.12
2018-04-22T07:23:10.573Z,42.16
2018-04-22T07:25:36.522Z,40.43
2018-04-22T07:28:02.477Z,40.07
2018-04-22T07:30:28.436Z,40.14
2018-04-22T07:32:54.456Z,39.91
2018-04-22T07:35:20.385Z,39.70
2018-04-22T07:37:46.317Z,38.67
2018-04-22T07:40:12.276Z,36.63
2018-04-22T07:42:38.236Z,38.34
2018-04-22T07:45:04.386Z,37.86
2018-04-22T07:47:31.064Z,37.36
2018-04-22T07:49:57.010Z,37.99
2018-04-22T07:52:22.936Z,38.95
2018-04-22T07:54:48.881Z,39.11
2018-04-22T07:57:14.874Z,38.29
2018-04-22T07:59:40.987Z,37.67
2018-04-22T08:02:06.926Z,37.99
2018-04-22T08:04:32.849Z,37.38
2018-04-22T08:06:58.788Z,37.55
2018-04-22T08:09:24.743Z,36.23
2018-04-22T08:11:50.694Z,35.69
2018-04-22T08:14:16.645Z,33.30
2018-04-22T08:16:42.621Z,34.77
2018-04-22T08:19:08.545Z,33.77
2018-04-22T08:21:34.553Z,34.92
2018-04-22T08:24:00.541Z,35.14
2018-04-22T08:26:26.483Z,33.62
2018-04-22T08:28:52.509Z,35.35
2018-04-22T08:31:18.454Z,35.08
2018-04-22T08:33:44.597Z,35.45
2018-04-22T08:36:10.539Z,36.72
2018-04-22T08:38:36.465Z,36.64
2018-04-22T08:41:02.526Z,40.85
2018-04-22T08:43:28.448Z,40.39
2018-04-22T08:45:54.515Z,39.74
2018-04-22T08:48:20.498Z,38.63
2018-04-22T08:50:46.463Z,40.36
2018-04-22T08:53:12.445Z,38.06
2018-04-22T08:55:38.381Z,36.81
2018-04-22T08:58:04.376Z,37.78
2018-04-22T09:00:30.329Z,40.33
2018-04-22T09:02:56.513Z,36.47
2018-04-22T09:05:22.559Z,36.23
2018-04-22T09:07:48.510Z,36.80
2018-04-22T09:10:14.684Z,36.06
2018-04-22T09:12:40.613Z,37.62
2018-04-22T09:15:06.581Z,39.13
2018-04-22T09:17:32.546Z,36.74
2018-04-22T09:19:58.473Z,36.99
2018-04-22T09:22:24.423Z,36.49
2018-04-22T09:24:50.382Z,37.80
2018-04-22T09:27:16.335Z,37.04
2018-04-22T09:29:42.343Z,38.60
2018-04-22T09:32:08.371Z,40.13
2018-04-22T09:34:34.339Z,38.20
2018-04-22T09:37:00.284Z,37.54
2018-04-22T09:39:26.300Z,36.70
2018-04-22T09:41:52.358Z,39.14
2018-04-22T09:44:18.328Z,39.17
2018-04-22T09:46:44.277Z,39.38
2018-04-22T09:49:10.216Z,38.79
2018-04-22T09:51:36.152Z,40.61
2018-04-22T09:54:02.124Z,38.70
2018-04-22T09:56:28.063Z,39.86
2018-04-22T09:58:54.038Z,39.86
2018-04-22T10:01:20.055Z,40.03
2018-04-22T10:03:46.006Z,40.23
2018-04-22T10:06:11.969Z,39.11
2018-04-22T10:08:37.923Z,40.67
2018-04-22T10:11:04.066Z,41.89
2018-04-22T10:13:30.034Z,41.51
2018-04-22T10:15:56.001Z,41.89
2018-04-22T10:18:21.926Z,41.78
2018-04-22T10:20:47.881Z,41.98
2018-04-22T10:23:13.888Z,40.73
2018-04-22T10:25:39.840Z,40.33
2018-04-22T10:28:05.781Z,39.72
2018-04-22T10:30:31.709Z,39.54
2018-04-22T10:32:57.633Z,42.48
2018-04-22T10:35:23.596Z,42.43
2018-04-22T10:37:49.533Z,42.19
2018-04-22T10:40:15.484Z,42.14
2018-04-22T10:42:41.440Z,42.12
2018-04-22T10:45:07.365Z,43.17
2018-04-22T10:47:33.358Z,42.11
2018-04-22T10:49:59.332Z,41.66
2018-04-22T10:52:25.260Z,41.03
2018-04-22T10:54:51.190Z,41.12
2018-04-22T10:57:17.140Z,40.89
2018-04-22T10:59:43.121Z,41.81
2018-04-22T11:02:09.093Z,41.63
2018-04-22T11:04:35.090Z,41.88
2018-04-22T11:07:01.029Z,42.86
2018-04-22T11:09:27.005Z,43.00
2018-04-22T11:11:52.973Z,44.06
2018-04-22T11:14:18.907Z,41.30
2018-04-22T11:16:44.889Z,43.61
2018-04-22T11:19:10.839Z,43.91
2018-04-22T11:21:36.774Z,41.42
2018-04-22T11:24:02.726Z,40.78
2018-04-22T11:26:28.717Z,40.13
2018-04-22T11:28:54.697Z,40.61
2018-04-22T11:31:20.689Z,40.42
2018-04-22T11:33:46.666Z,41.37
2018-04-22T11:36:12.620Z,42.72
2018-04-22T11:38:38.664Z,44.45
2018-04-22T11:41:04.818Z,42.89
2018-04-22T11:43:30.766Z,42.76
2018-04-22T11:45:56.743Z,41.92
2018-04-22T11:48:22.704Z,40.52
2018-04-22T11:50:48.670Z,40.64
2018-04-22T11:53:14.677Z,41.91
2018-04-22T11:55:40.636Z,41.11
2018-04-22T11:58:06.575Z,40.27
2018-04-22T12:00:32.517Z,40.83
2018-04-22T12:02:58.465Z,42.34
2018-04-22T12:05:24.456Z,40.76
2018-04-22T12:07:50.415Z,41.26
2018-04-22T12:10:16.387Z,41.32
2018-04-22T12:12:42.329Z,42.51
2018-04-22T12:15:08.277Z,43.46
2018-04-22T12:17:34.290Z,43.11
2018-04-22T12:20:00.215Z,44.51
2018-04-22T12:22:26.265Z,41.73
2018-04-22T12:24:52.210Z,41.25
2018-04-22T12:27:18.180Z,40.14
2018-04-22T12:29:44.168Z,43.88
2018-04-22T12:32:10.122Z,44.20
2018-04-22T12:34:36.164Z,42.79
2018-04-22T12:37:02.112Z,41.75
2018-04-22T12:39:28.070Z,42.86
2018-04-22T12:41:54.010Z,44.29
2018-04-22T12:44:19.937Z,41.85
2018-04-22T12:46:45.935Z,41.48
2018-04-22T12:49:11.916Z,40.66
2018-04-22T12:51:37.906Z,40.56
2018-04-22T12:54:03.878Z,42.21
2018-04-22T12:56:29.829Z,40.64
2018-04-22T12:58:55.808Z,43.07
2018-04-22T13:01:21.742Z,42.29
2018-04-22T13:03:48.063Z,40.76
2018-04-22T13:06:14.066Z,40.55
2018-04-22T13:08:40.010Z,41.32
2018-04-22T13:11:05.975Z,40.74
2018-04-22T13:13:31.910Z,43.13
2018-04-22T13:15:57.977Z,44.09
2018-04-22T13:18:23.916Z,45.43
2018-04-22T13:20:49.859Z,44.85
2018-04-22T13:23:15.801Z,42.34
2018-04-22T13:25:41.731Z,44.57
2018-04-22T13:28:07.677Z,41.99
2018-04-22T13:30:33.803Z,41.69
2018-04-22T13:32:59.774Z,40.82
2018-04-22T13:37:58.134Z,45.78
2018-04-22T13:40:24.060Z,45.70
2018-04-22T13:42:50.076Z,44.02
2018-04-22T13:45:16.008Z,44.56
2018-04-22T13:47:42.022Z,45.10
2018-04-22T13:50:07.980Z,44.56
2018-04-22T13:52:33.979Z,45.57
2018-04-22T13:54:59.934Z,42.83
2018-04-22T13:57:25.883Z,41.88
2018-04-22T13:59:51.960Z,42.62
2018-04-22T14:02:17.900Z,44.89
2018-04-22T14:04:43.830Z,45.79
2018-04-22T14:07:09.777Z,42.13
2018-04-22T14:09:35.705Z,39.78
2018-04-22T14:12:01.673Z,40.05
2018-04-22T14:14:27.618Z,40.67
2018-04-22T14:16:53.564Z,39.65
2018-04-22T14:19:20.643Z,40.64
2018-04-22T14:21:46.591Z,44.17
2018-04-22T14:24:12.556Z,40.30
2018-04-22T14:26:38.504Z,37.69
2018-04-22T14:29:04.457Z,38.58
2018-04-22T14:31:30.401Z,36.90
2018-04-22T14:33:56.355Z,38.89
2018-04-22T14:36:22.317Z,38.53
2018-04-22T14:38:48.276Z,39.05
2018-04-22T14:41:14.235Z,38.79
2018-04-22T14:43:40.249Z,39.10
2018-04-22T14:46:06.205Z,40.27
2018-04-22T14:48:32.166Z,41.57
2018-04-22T14:50:58.112Z,40.57
2018-04-22T14:53:24.054Z,41.76
2018-04-22T14:55:49.985Z,43.69
2018-04-22T14:58:15.979Z,42.80
2018-04-22T15:00:41.939Z,38.89
2018-04-22T15:03:07.894Z,37.23
2018-04-22T15:05:33.867Z,37.50
2018-04-22T15:07:59.827Z,38.41
2018-04-22T15:10:25.765Z,39.00
2018-04-22T15:12:51.809Z,38.47
2018-04-22T15:15:17.761Z,39.43
2018-04-22T15:17:43.704Z,40.12
2018-04-22T15:20:09.648Z,40.00
2018-04-22T15:22:35.626Z,38.98
2018-04-22T15:25:01.595Z,38.97
2018-04-22T15:27:27.545Z,39.72
2018-04-22T15:29:54.370Z,39.40
2018-04-22T15:32:20.320Z,40.23
2018-04-22T15:34:46.300Z,40.45
2018-04-22T15:37:12.267Z,39.36
2018-04-22T15:39:38.373Z,39.24
2018-04-22T15:42:04.309Z,39.19
2018-04-22T15:44:30.269Z,39.61
2018-04-22T15:46:56.238Z,40.03
2018-04-22T15:49:22.199Z,39.57
2018-04-22T15:51:48.134Z,40.21
2018-04-22T15:54:14.234Z,40.44
2018-04-22T15:56:40.180Z,39.17
2018-04-22T15:59:06.186Z,39.83
2018-04-22T16:01:32.115Z,39.73
2018-04-22T16:03:58.051Z,39.60
2018-04-22T16:06:23.988Z,39.42
2018-04-22T16:08:49.958Z,39.73
2018-04-22T16:11:15.932Z,39.38
2018-04-22T16:13:41.873Z,39.64
2018-04-22T16:16:08.099Z,39.90
2018-04-22T16:18:34.049Z,39.74
2018-04-22T16:20:59.982Z,39.34
2018-04-22T16:23:25.942Z,38.86
2018-04-22T16:28:24.331Z,38.56
2018-04-22T16:30:50.269Z,38.94
2018-04-22T16:33:16.243Z,38.57
2018-04-22T16:35:42.205Z,47.57
2018-04-22T16:38:08.138Z,57.12
2018-04-22T16:40:34.084Z,56.52
2018-04-22T16:43:00.024Z,59.47
2018-04-22T16:45:26.589Z,60.58
2018-04-22T16:47:52.561Z,61.20
2018-04-22T16:50:18.502Z,60.88
2018-04-22T16:52:44.457Z,63.51
2018-04-22T16:55:10.476Z,63.10
2018-04-22T16:57:36.418Z,58.63
2018-04-22T17:00:02.471Z,55.88
2018-04-22T17:02:28.446Z,54.02
2018-04-22T17:04:54.394Z,56.88
2018-04-22T17:07:20.356Z,60.51
2018-04-22T17:09:46.286Z,57.54
2018-04-22T17:12:12.275Z,62.40
2018-04-22T17:14:38.230Z,56.30
2018-04-22T17:17:04.171Z,57.34
2018-04-22T17:19:30.163Z,56.17
2018-04-22T17:21:56.112Z,58.31
2018-04-22T17:24:22.104Z,55.29
2018-04-22T17:26:48.074Z,50.77
2018-04-22T17:29:14.022Z,54.04
2018-04-22T17:54:51.078Z,42.04
2018-04-22T17:57:17.228Z,43.03
2018-04-22T17:59:43.301Z,41.72
2018-04-22T18:02:09.234Z,41.82
2018-04-22T18:04:35.210Z,42.61
2018-04-22T18:07:01.196Z,42.46
2018-04-22T18:09:27.359Z,42.62
2018-04-22T18:11:53.360Z,42.52
2018-04-22T18:14:19.320Z,42.57
2018-04-22T18:19:17.717Z,43.28
2018-04-22T18:21:43.717Z,43.62
2018-04-22T18:24:11.765Z,43.40
2018-04-22T18:26:37.951Z,43.86
2018-04-22T18:29:03.983Z,44.02
2018-04-22T18:31:30.141Z,44.14
2018-04-22T18:33:56.173Z,44.08
2018-04-22T18:36:22.269Z,44.13
2018-04-22T18:38:48.272Z,44.28
2018-04-22T18:41:14.288Z,44.20
2018-04-22T18:43:40.236Z,44.17
2018-04-22T18:46:06.216Z,44.42
2018-04-22T18:51:05.666Z,43.83
2018-04-22T18:53:31.690Z,43.72
2018-04-22T18:55:58.755Z,43.77
2018-04-22T18:58:24.791Z,44.05
2018-04-22T19:00:50.899Z,44.63
2018-04-22T19:03:17.651Z,44.55
2018-04-22T19:05:43.678Z,44.57
2018-04-22T19:08:09.683Z,45.19
2018-04-22T19:10:35.693Z,45.09
2018-04-22T19:13:01.907Z,45.17
2018-04-22T19:15:29.044Z,45.87
2018-04-22T19:17:55.009Z,46.23
2018-04-22T19:20:20.985Z,46.13
2018-04-22T19:22:46.931Z,45.76
2018-04-22T19:25:12.882Z,45.67
2018-04-22T19:27:38.878Z,46.17
2018-04-22T19:30:05.706Z,46.49
2018-04-22T19:32:32.882Z,46.67
2018-04-22T19:34:58.926Z,47.32
2018-04-22T19:37:24.946Z,47.98
2018-04-22T19:39:50.905Z,48.66
2018-04-22T19:42:16.859Z,47.77
2018-04-22T19:44:42.799Z,48.31
2018-04-22T19:47:08.764Z,49.47
2018-04-22T19:49:34.755Z,49.26
2018-04-22T19:52:00.695Z,49.40
2018-04-22T19:54:26.703Z,49.63
2018-04-22T19:56:52.659Z,50.10
2018-04-22T19:59:18.611Z,50.41
2018-04-22T20:01:44.589Z,50.77
2018-04-22T20:04:10.561Z,51.36
2018-04-22T20:06:36.523Z,51.48
2018-04-22T20:09:02.485Z,51.95
2018-04-22T20:11:28.458Z,52.60
2018-04-22T20:13:54.430Z,52.96
2018-04-22T20:16:20.420Z,53.58
2018-04-22T20:18:46.388Z,53.85
2018-04-22T20:21:12.359Z,53.79
2018-04-22T20:23:38.354Z,54.70
2018-04-22T20:26:04.319Z,55.21
2018-04-22T20:28:30.256Z,55.74
2018-04-22T20:31:00.149Z,55.79
2018-04-22T20:33:26.131Z,56.81
2018-04-22T20:35:52.209Z,57.44
2018-04-22T20:38:18.171Z,57.02
2018-04-22T20:40:44.179Z,56.05
2018-04-22T20:43:10.114Z,57.05
2018-04-22T20:45:36.107Z,56.97
2018-04-22T20:48:02.089Z,57.61
2018-04-22T20:50:28.579Z,58.07
2018-04-22T20:52:54.525Z,57.55
2018-04-22T20:55:20.494Z,57.74
2018-04-22T20:57:46.450Z,57.96
2018-04-22T21:00:12.414Z,57.35
2018-04-22T21:02:38.385Z,58.70
2018-04-22T21:05:04.419Z,58.84
2018-04-22T21:07:30.382Z,57.67
2018-04-22T21:09:56.344Z,57.49
2018-04-22T21:12:22.316Z,57.99
2018-04-22T21:14:48.335Z,58.04
2018-04-22T21:17:14.518Z,58.08
2018-04-22T21:19:40.529Z,58.55
2018-04-22T21:22:06.609Z,58.77
2018-04-22T21:24:32.583Z,59.04
2018-04-22T21:26:58.520Z,58.49
2018-04-22T21:29:24.452Z,58.58
2018-04-22T21:31:50.406Z,58.68
2018-04-22T21:34:16.358Z,58.04
2018-04-22T21:36:42.298Z,57.57
2018-04-22T21:39:08.261Z,57.13
2018-04-22T21:41:34.231Z,57.84
2018-04-22T21:44:00.172Z,58.37
2018-04-22T21:46:26.140Z,59.14
2018-04-22T21:48:52.110Z,58.49
2018-04-22T21:51:18.074Z,59.60
2018-04-22T21:53:44.045Z,58.65
2018-04-22T21:56:10.016Z,60.06
2018-04-22T21:58:36.017Z,60.98
2018-04-22T22:01:01.965Z,61.63
2018-04-22T22:03:27.940Z,60.99
2018-04-22T22:05:53.919Z,61.57
2018-04-22T22:08:19.871Z,62.25
2018-04-22T22:10:45.814Z,61.68
2018-04-22T22:13:11.820Z,62.28
2018-04-22T22:15:37.783Z,61.87
2018-04-22T22:18:03.760Z,61.18
2018-04-22T22:20:29.734Z,61.26
2018-04-22T22:22:55.703Z,61.38
2018-04-22T22:25:21.685Z,61.90
2018-04-22T22:27:47.652Z,62.15
2018-04-22T22:30:13.625Z,61.72
2018-04-22T22:32:39.602Z,61.48
2018-04-22T22:35:05.603Z,61.42
2018-04-22T22:37:31.585Z,61.06
2018-04-22T22:39:57.589Z,62.31
2018-04-22T22:42:23.526Z,63.12
2018-04-22T22:44:49.458Z,61.62
2018-04-22T22:47:15.443Z,63.00
2018-04-22T22:49:41.373Z,63.24
2018-04-22T22:52:07.909Z,62.72
2018-04-22T22:54:33.844Z,61.91
2018-04-22T22:56:59.809Z,61.17
2018-04-22T22:59:25.779Z,61.03
2018-04-22T23:01:51.752Z,60.30
2018-04-22T23:04:17.711Z,61.13
2018-04-22T23:06:43.695Z,61.37
2018-04-22T23:09:09.656Z,61.91
2018-04-22T23:11:35.592Z,61.82
2018-04-22T23:14:02.214Z,61.67
2018-04-22T23:16:28.133Z,62.42
2018-04-22T23:18:54.090Z,62.17
2018-04-22T23:21:20.075Z,62.00
2018-04-22T23:23:46.073Z,61.79
2018-04-22T23:26:12.050Z,61.89
2018-04-22T23:28:37.994Z,62.91
2018-04-22T23:31:03.935Z,62.08
2018-04-22T23:33:29.905Z,61.13
2018-04-22T23:35:55.886Z,60.64
2018-04-22T23:38:21.834Z,60.55
2018-04-22T23:40:47.862Z,60.92
2018-04-22T23:43:13.863Z,62.94
2018-04-22T23:45:39.847Z,61.58
2018-04-22T23:48:05.807Z,62.69
2018-04-22T23:50:31.794Z,60.61
2018-04-22T23:52:57.822Z,59.18
2018-04-22T23:55:23.793Z,58.97
2018-04-22T23:57:49.838Z,58.33
